Time;durP1;ratioP1;P1;durP2;ratioP2;P2;SDS_P1;SDS_P2;PMS_P1;PMS_P2;Temp;Humidity;BMP_temperature;BMP_pressure;BME280_temperature;BME280_humidity;BME280_pressure;Samples;Min_cycle;Max_cycle;Signal;HPM_P1;HPM_P2
2023/05/27 00:00:09;;;;;;;;;4.25;2.00;;;;;;;;5055415;28;45449;-80
2023/05/27 00:02:35;;;;;;;;;1.25;1.00;;;;;;;;5055338;28;45508;-81
2023/05/27 00:05:00;;;;;;;;;0.25;0.25;;;;;;;;5055071;28;45743;-81
2023/05/27 00:07:26;;;;;;;;;2.00;2.00;;;;;;;;5054957;28;45448;-81
2023/05/27 00:09:51;;;;;;;;;2.75;1.00;;;;;;;;5054781;28;46313;-80
2023/05/27 00:12:16;;;;;;;;;6.50;1.50;;;;;;;;5055175;28;45372;-80
2023/05/27 00:14:42;;;;;;;;;1.67;1.67;;;;;;;;5054769;28;45363;-80
2023/05/27 00:17:09;;;;;;;;;2.75;2.75;;;;;;;;5055185;28;45353;-82
2023/05/27 00:19:34;;;;;;;;;4.25;1.00;;;;;;;;5054432;28;45523;-80
2023/05/27 00:21:59;;;;;;;;;1.75;1.00;;;;;;;;5053766;28;45351;-80
2023/05/27 00:24:25;;;;;;;;;1.67;0.33;;;;;;;;5054513;28;45277;-79
2023/05/27 00:26:50;;;;;;;;;3.00;1.00;;;;;;;;5058213;28;45509;-80
2023/05/27 00:29:16;;;;;;;;;5.00;2.00;;;;;;;;5058474;28;45982;-80
2023/05/27 00:31:41;;;;;;;;;5.25;2.25;;;;;;;;5058239;28;45451;-81
2023/05/27 00:34:06;;;;;;;;;3.33;1.00;;;;;;;;5058252;28;45288;-80
2023/05/27 00:36:31;;;;;;;;;2.00;1.00;;;;;;;;5057989;28;45634;-81
2023/05/27 00:38:57;;;;;;;;;3.00;1.67;;;;;;;;5057903;28;45560;-81
2023/05/27 00:41:22;;;;;;;;;2.33;1.00;;;;;;;;5057872;28;45289;-81
2023/05/27 00:43:48;;;;;;;;;4.00;1.00;;;;;;;;5058367;28;45399;-80
2023/05/27 00:46:13;;;;;;;;;3.00;2.00;;;;;;;;5057995;28;45463;-81
2023/05/27 00:48:38;;;;;;;;;1.00;0.67;;;;;;;;5057460;28;46383;-81
2023/05/27 00:51:03;;;;;;;;;3.33;2.00;;;;;;;;5058101;28;45290;-79
2023/05/27 00:53:35;;;;;;;;;3.67;3.00;;;;;;;;5057733;28;45451;-80
2023/05/27 00:56:02;;;;;;;;;3.00;1.00;;;;;;;;5057946;28;45473;-80
2023/05/27 00:58:28;;;;;;;;;2.00;0.00;;;;;;;;5057655;28;46182;-80
2023/05/27 01:00:53;;;;;;;;;6.25;1.50;;;;;;;;5058168;28;45862;-80
2023/05/27 01:03:20;;;;;;;;;6.00;1.00;;;;;;;;5057618;28;45349;-78
2023/05/27 01:05:45;;;;;;;;;1.25;1.00;;;;;;;;5057359;28;45384;-80
2023/05/27 01:08:11;;;;;;;;;2.00;1.00;;;;;;;;5057137;28;45455;-80
2023/05/27 01:10:48;;;;;;;;;3.25;2.00;;;;;;;;5057859;28;45419;-80
2023/05/27 01:13:17;;;;;;;;;1.00;1.00;;;;;;;;5057701;28;45554;-80
2023/05/27 01:15:43;;;;;;;;;1.00;1.00;;;;;;;;5058225;28;45276;-81
2023/05/27 01:18:09;;;;;;;;;3.75;1.00;;;;;;;;5039824;28;47038;-79
2023/05/27 01:20:40;;;;;;;;;2.00;1.00;;;;;;;;5057509;28;45363;-81
2023/05/27 01:23:06;;;;;;;;;1.25;1.00;;;;;;;;5057408;28;45338;-80
2023/05/27 01:25:32;;;;;;;;;0.75;0.25;;;;;;;;5057796;28;45494;-80
2023/05/27 01:27:57;;;;;;;;;6.00;2.67;;;;;;;;5057222;28;46069;-80
2023/05/27 01:30:22;;;;;;;;;1.00;1.00;;;;;;;;5057058;28;45475;-81
2023/05/27 01:32:51;;;;;;;;;2.00;1.00;;;;;;;;5055959;28;45367;-80
2023/05/27 01:35:31;;;;;;;;;1.00;1.00;;;;;;;;5057450;28;45503;-80
2023/05/27 01:37:58;;;;;;;;;4.00;2.25;;;;;;;;5057086;28;45467;-80
2023/05/27 01:40:24;;;;;;;;;2.25;1.25;;;;;;;;5057647;28;45653;-81
2023/05/27 01:42:49;;;;;;;;;0.00;0.00;;;;;;;;5057356;28;45353;-80
2023/05/27 01:45:14;;;;;;;;;1.00;1.00;;;;;;;;5057350;28;45503;-80
2023/05/27 01:47:42;;;;;;;;;2.33;1.00;;;;;;;;5057146;28;47208;-80
2023/05/27 01:50:07;;;;;;;;;3.75;1.00;;;;;;;;5056809;28;45719;-80
2023/05/27 01:52:32;;;;;;;;;3.00;1.00;;;;;;;;5057147;28;45368;-80
2023/05/27 01:54:57;;;;;;;;;2.00;2.00;;;;;;;;5057299;28;45323;-80
2023/05/27 01:57:24;;;;;;;;;1.33;1.33;;;;;;;;5056637;28;45545;-80
2023/05/27 01:59:49;;;;;;;;;3.75;1.00;;;;;;;;5057004;28;45411;-80
2023/05/27 02:02:14;;;;;;;;;3.67;1.67;;;;;;;;5056811;28;45344;-80
2023/05/27 02:04:40;;;;;;;;;3.00;1.00;;;;;;;;5056880;28;45332;-80
2023/05/27 02:07:05;;;;;;;;;8.00;2.00;;;;;;;;5056857;28;46368;-80
2023/05/27 02:09:30;;;;;;;;;1.00;1.00;;;;;;;;5056707;28;45450;-80
2023/05/27 02:11:55;;;;;;;;;2.00;1.00;;;;;;;;5057180;28;45705;-80
2023/05/27 02:14:21;;;;;;;;;3.00;3.00;;;;;;;;5056834;28;45241;-80
2023/05/27 02:16:49;;;;;;;;;4.00;1.00;;;;;;;;5056604;28;45565;-82
2023/05/27 02:19:14;;;;;;;;;1.75;1.00;;;;;;;;5055985;28;45692;-82
2023/05/27 02:21:40;;;;;;;;;1.25;1.25;;;;;;;;5056572;28;45396;-81
2023/05/27 02:24:05;;;;;;;;;7.25;3.00;;;;;;;;5056302;28;45563;-81
2023/05/27 02:26:31;;;;;;;;;2.00;2.00;;;;;;;;5056449;28;45399;-82
2023/05/27 02:28:56;;;;;;;;;1.00;1.00;;;;;;;;5056431;28;45634;-82
2023/05/27 02:31:21;;;;;;;;;1.00;0.33;;;;;;;;5056795;28;45424;-81
2023/05/27 02:33:46;;;;;;;;;2.00;1.25;;;;;;;;5056281;28;45444;-81
2023/05/27 02:36:12;;;;;;;;;1.67;1.00;;;;;;;;5056392;28;47115;-82
2023/05/27 02:38:37;;;;;;;;;1.00;1.00;;;;;;;;5056216;28;45442;-82
2023/05/27 02:41:03;;;;;;;;;0.00;0.00;;;;;;;;5056428;28;45371;-81
2023/05/27 02:43:28;;;;;;;;;3.00;0.67;;;;;;;;5055961;28;45505;-82
2023/05/27 02:45:53;;;;;;;;;3.50;2.00;;;;;;;;5055979;28;45388;-82
2023/05/27 02:48:18;;;;;;;;;3.00;1.33;;;;;;;;5055292;28;45407;-82
2023/05/27 02:50:43;;;;;;;;;3.00;2.00;;;;;;;;5056342;28;45910;-81
2023/05/27 02:53:09;;;;;;;;;2.33;2.00;;;;;;;;5055932;28;45556;-82
2023/05/27 02:55:34;;;;;;;;;1.00;1.00;;;;;;;;5054679;28;46300;-82
2023/05/27 02:57:59;;;;;;;;;3.00;0.00;;;;;;;;5055541;28;45463;-81
2023/05/27 03:00:25;;;;;;;;;1.00;0.75;;;;;;;;5056230;28;45484;-81
2023/05/27 03:02:50;;;;;;;;;2.00;1.00;;;;;;;;5055268;28;45457;-82
2023/05/27 03:05:16;;;;;;;;;1.00;1.00;;;;;;;;5056704;28;45495;-82
2023/05/27 03:07:41;;;;;;;;;1.00;1.00;;;;;;;;5056029;28;45294;-82
2023/05/27 03:10:07;;;;;;;;;2.00;1.00;;;;;;;;5056469;28;45283;-81
2023/05/27 03:12:32;;;;;;;;;2.00;1.50;;;;;;;;5055886;28;45299;-82
2023/05/27 03:14:57;;;;;;;;;4.00;3.00;;;;;;;;5056017;28;46446;-82
2023/05/27 03:17:22;;;;;;;;;0.67;0.67;;;;;;;;5055163;28;45287;-82
2023/05/27 03:19:48;;;;;;;;;2.00;2.00;;;;;;;;5056406;28;45266;-82
2023/05/27 03:22:13;;;;;;;;;1.50;1.50;;;;;;;;5055854;28;45456;-80
2023/05/27 03:24:38;;;;;;;;;3.00;1.00;;;;;;;;5055808;28;46808;-81
2023/05/27 03:27:04;;;;;;;;;3.00;2.00;;;;;;;;5055531;28;45205;-82
2023/05/27 03:29:29;;;;;;;;;4.50;2.00;;;;;;;;5056139;28;45305;-81
2023/05/27 03:31:54;;;;;;;;;2.00;1.75;;;;;;;;5054945;28;45280;-82
2023/05/27 03:34:19;;;;;;;;;2.33;1.00;;;;;;;;5055593;28;45554;-82
2023/05/27 03:36:46;;;;;;;;;1.00;1.00;;;;;;;;5055714;28;45500;-80
2023/05/27 03:39:13;;;;;;;;;1.75;1.50;;;;;;;;5055895;28;45365;-80
2023/05/27 03:41:38;;;;;;;;;1.75;1.00;;;;;;;;5055140;28;45320;-81
2023/05/27 03:44:04;;;;;;;;;2.00;1.00;;;;;;;;5055199;28;45371;-81
2023/05/27 03:46:29;;;;;;;;;4.00;1.00;;;;;;;;5054504;28;45361;-82
2023/05/27 03:48:54;;;;;;;;;1.50;1.00;;;;;;;;5055527;28;45241;-80
2023/05/27 03:51:20;;;;;;;;;1.00;0.67;;;;;;;;5055581;28;45657;-81
2023/05/27 03:53:45;;;;;;;;;1.00;1.00;;;;;;;;5055048;28;46256;-81
2023/05/27 03:56:11;;;;;;;;;2.00;2.00;;;;;;;;5055254;28;45483;-81
2023/05/27 03:58:36;;;;;;;;;1.00;1.00;;;;;;;;5055690;28;45300;-80
2023/05/27 04:01:01;;;;;;;;;1.00;1.00;;;;;;;;5058410;28;45261;-80
2023/05/27 04:03:27;;;;;;;;;2.75;2.00;;;;;;;;5058659;28;45755;-80
2023/05/27 04:05:52;;;;;;;;;1.00;1.00;;;;;;;;5058485;28;45308;-79
2023/05/27 04:08:17;;;;;;;;;1.67;1.00;;;;;;;;5058442;28;45334;-80
2023/05/27 04:10:42;;;;;;;;;4.67;1.67;;;;;;;;5058744;28;45528;-81
2023/05/27 04:13:07;;;;;;;;;0.00;0.00;;;;;;;;5058224;28;46285;-81
2023/05/27 04:15:34;;;;;;;;;4.00;1.33;;;;;;;;5058309;28;45309;-80
2023/05/27 04:17:59;;;;;;;;;4.25;3.00;;;;;;;;5058299;28;45379;-81
2023/05/27 04:20:24;;;;;;;;;1.75;0.00;;;;;;;;5058473;28;45491;-81
2023/05/27 04:22:50;;;;;;;;;9.00;1.33;;;;;;;;5058163;28;45403;-81
2023/05/27 04:25:15;;;;;;;;;2.25;0.50;;;;;;;;5058395;28;45573;-81
2023/05/27 04:27:40;;;;;;;;;2.00;1.00;;;;;;;;5058335;28;45591;-81
2023/05/27 04:30:06;;;;;;;;;2.33;0.33;;;;;;;;5058213;28;45536;-81
2023/05/27 04:32:37;;;;;;;;;0.50;0.25;;;;;;;;5057792;28;46525;-81
2023/05/27 04:35:09;;;;;;;;;3.00;1.25;;;;;;;;5058581;28;45248;-81
2023/05/27 04:37:35;;;;;;;;;3.75;1.00;;;;;;;;5058318;28;45486;-81
2023/05/27 04:40:02;;;;;;;;;2.25;1.00;;;;;;;;5058509;28;45513;-80
2023/05/27 04:42:29;;;;;;;;;2.00;1.00;;;;;;;;5056480;28;45470;-81
2023/05/27 04:44:54;;;;;;;;;1.00;1.00;;;;;;;;5058091;28;45640;-81
2023/05/27 04:47:20;;;;;;;;;1.33;1.00;;;;;;;;5044016;28;45420;-82
2023/05/27 04:49:46;;;;;;;;;2.00;2.00;;;;;;;;5038053;28;45400;-82
2023/05/27 04:52:11;;;;;;;;;2.00;1.00;;;;;;;;5050242;28;46515;-81
2023/05/27 04:54:36;;;;;;;;;2.33;0.67;;;;;;;;5057776;28;45400;-81
2023/05/27 04:57:02;;;;;;;;;2.00;2.00;;;;;;;;5058351;28;45404;-81
2023/05/27 04:59:58;;;;;;;;;3.33;1.00;;;;;;;;5057901;28;45336;-81
2023/05/27 05:02:25;;;;;;;;;2.00;1.00;;;;;;;;5056519;28;45296;-82
2023/05/27 05:04:50;;;;;;;;;1.75;1.00;;;;;;;;5057839;28;45689;-81
2023/05/27 05:07:16;;;;;;;;;1.00;1.00;;;;;;;;5058058;28;45331;-81
2023/05/27 05:09:41;;;;;;;;;3.00;1.00;;;;;;;;5058119;28;45541;-81
2023/05/27 05:12:07;;;;;;;;;1.00;1.00;;;;;;;;5056542;28;46561;-81
2023/05/27 05:14:32;;;;;;;;;3.25;1.75;;;;;;;;5057834;28;45584;-81
2023/05/27 05:16:57;;;;;;;;;4.33;0.33;;;;;;;;5057988;28;45286;-81
2023/05/27 05:19:22;;;;;;;;;1.00;1.00;;;;;;;;5057675;28;45280;-82
2023/05/27 05:21:47;;;;;;;;;1.67;1.00;;;;;;;;5057940;28;45336;-81
2023/05/27 05:24:13;;;;;;;;;1.67;1.67;;;;;;;;5057684;28;45518;-81
2023/05/27 05:26:38;;;;;;;;;5.00;3.00;;;;;;;;5057130;28;45301;-81
2023/05/27 05:29:03;;;;;;;;;4.00;2.00;;;;;;;;5057795;28;45248;-81
2023/05/27 05:31:28;;;;;;;;;3.67;1.00;;;;;;;;5056816;28;45582;-80
2023/05/27 05:33:53;;;;;;;;;2.00;1.00;;;;;;;;5057554;28;45411;-81
2023/05/27 05:36:20;;;;;;;;;2.67;2.00;;;;;;;;5057762;28;45404;-82
2023/05/27 05:38:46;;;;;;;;;5.00;2.00;;;;;;;;5057781;28;45388;-80
2023/05/27 05:41:11;;;;;;;;;1.00;1.00;;;;;;;;5056996;28;45387;-81
2023/05/27 05:43:36;;;;;;;;;2.00;1.00;;;;;;;;5056435;28;45705;-81
2023/05/27 05:46:01;;;;;;;;;1.67;1.00;;;;;;;;5057474;28;45398;-81
2023/05/27 05:48:27;;;;;;;;;4.00;1.75;;;;;;;;5057123;28;45405;-80
2023/05/27 05:50:52;;;;;;;;;3.00;1.50;;;;;;;;5057172;28;45687;-81
2023/05/27 05:53:17;;;;;;;;;1.33;1.33;;;;;;;;5057192;28;45618;-82
2023/05/27 05:55:42;;;;;;;;;4.00;1.33;;;;;;;;5057027;28;45334;-81
2023/05/27 05:58:07;;;;;;;;;2.00;1.00;;;;;;;;5056828;28;45514;-81
2023/05/27 06:00:33;;;;;;;;;2.33;1.33;;;;;;;;5056795;28;45419;-81
2023/05/27 06:02:58;;;;;;;;;3.25;1.00;;;;;;;;5056882;28;45443;-81
2023/05/27 06:05:25;;;;;;;;;1.50;1.00;;;;;;;;5057084;28;45473;-81
2023/05/27 06:07:51;;;;;;;;;5.00;1.00;;;;;;;;5056844;28;45524;-81
2023/05/27 06:10:17;;;;;;;;;1.00;1.00;;;;;;;;5056540;28;45260;-82
2023/05/27 06:12:42;;;;;;;;;5.50;1.00;;;;;;;;5056062;28;45549;-81
2023/05/27 06:15:08;;;;;;;;;2.75;2.00;;;;;;;;5057017;28;45232;-82
2023/05/27 06:17:34;;;;;;;;;1.00;1.00;;;;;;;;5056277;28;45522;-81
2023/05/27 06:19:59;;;;;;;;;0.50;0.50;;;;;;;;5056970;28;45515;-81
2023/05/27 06:22:24;;;;;;;;;4.00;1.00;;;;;;;;5055839;28;45370;-81
2023/05/27 06:24:50;;;;;;;;;2.75;1.00;;;;;;;;5055356;28;45479;-81
2023/05/27 06:27:15;;;;;;;;;2.67;1.00;;;;;;;;5066841;27;45252;-80
2023/05/27 06:29:40;;;;;;;;;4.00;2.67;;;;;;;;5058158;28;45366;-82
2023/05/27 06:32:05;;;;;;;;;0.00;0.00;;;;;;;;5056126;28;45394;-82
2023/05/27 06:34:31;;;;;;;;;1.25;1.00;;;;;;;;5056364;28;45260;-80
2023/05/27 06:36:56;;;;;;;;;1.67;1.00;;;;;;;;5056677;28;45285;-81
2023/05/27 06:39:22;;;;;;;;;2.00;2.00;;;;;;;;5056221;28;46352;-82
2023/05/27 06:41:47;;;;;;;;;2.25;2.00;;;;;;;;5055827;28;45384;-80
2023/05/27 06:44:13;;;;;;;;;2.00;1.50;;;;;;;;5057307;28;45699;-80
2023/05/27 06:46:38;;;;;;;;;0.67;0.67;;;;;;;;5056304;28;45458;-81
2023/05/27 06:49:03;;;;;;;;;1.00;1.00;;;;;;;;5056375;28;46194;-80
2023/05/27 06:51:28;;;;;;;;;2.00;2.00;;;;;;;;5056619;28;45407;-80
2023/05/27 06:53:53;;;;;;;;;2.33;0.00;;;;;;;;5056294;28;45384;-81
2023/05/27 06:56:19;;;;;;;;;1.33;1.00;;;;;;;;5056472;28;45329;-80
2023/05/27 06:58:45;;;;;;;;;3.67;1.33;;;;;;;;5055256;28;46350;-79
2023/05/27 07:01:10;;;;;;;;;2.00;2.00;;;;;;;;5056285;28;45310;-80
2023/05/27 07:03:35;;;;;;;;;2.00;1.00;;;;;;;;5056438;28;45286;-79
2023/05/27 07:06:00;;;;;;;;;1.00;1.00;;;;;;;;5056465;28;45400;-80
2023/05/27 07:08:26;;;;;;;;;3.00;1.50;;;;;;;;5055796;28;45524;-81
2023/05/27 07:10:51;;;;;;;;;2.00;2.00;;;;;;;;5055556;28;45479;-82
2023/05/27 07:13:16;;;;;;;;;2.33;1.33;;;;;;;;5054228;28;45294;-81
2023/05/27 07:15:42;;;;;;;;;5.33;1.00;;;;;;;;5055146;28;45272;-81
2023/05/27 07:18:07;;;;;;;;;3.25;1.00;;;;;;;;5055776;28;45386;-80
2023/05/27 07:20:33;;;;;;;;;2.00;1.67;;;;;;;;5053139;28;45520;-82
2023/05/27 07:22:58;;;;;;;;;4.00;2.75;;;;;;;;5036603;28;45526;-82
2023/05/27 07:25:23;;;;;;;;;5.67;2.33;;;;;;;;5056009;28;45615;-80
2023/05/27 07:27:48;;;;;;;;;3.00;1.00;;;;;;;;5055651;28;46415;-78
2023/05/27 07:30:15;;;;;;;;;3.67;1.67;;;;;;;;5054922;28;45290;-81
2023/05/27 07:32:40;;;;;;;;;2.75;1.00;;;;;;;;5055918;28;45471;-81
2023/05/27 07:35:05;;;;;;;;;4.00;1.33;;;;;;;;5055636;28;45341;-81
2023/05/27 07:37:31;;;;;;;;;3.25;2.25;;;;;;;;5055683;28;46078;-81
2023/05/27 07:39:56;;;;;;;;;4.00;3.00;;;;;;;;5056205;28;45378;-81
2023/05/27 07:42:21;;;;;;;;;4.00;2.00;;;;;;;;5056394;28;45441;-81
2023/05/27 07:44:46;;;;;;;;;3.67;1.33;;;;;;;;5056336;28;45477;-81
2023/05/27 07:47:11;;;;;;;;;2.67;0.00;;;;;;;;5034350;28;47131;-84
2023/05/27 07:49:36;;;;;;;;;4.00;1.33;;;;;;;;5034701;28;45499;-81
2023/05/27 07:52:02;;;;;;;;;5.67;2.33;;;;;;;;5034801;28;45500;-82
2023/05/27 07:54:27;;;;;;;;;4.00;2.00;;;;;;;;5035863;28;45333;-82
2023/05/27 07:56:52;;;;;;;;;1.67;1.00;;;;;;;;5035713;28;45324;-81
2023/05/27 07:59:17;;;;;;;;;1.75;1.75;;;;;;;;5035720;28;45435;-82
2023/05/27 08:01:43;;;;;;;;;3.00;3.00;;;;;;;;5035795;28;45344;-82
2023/05/27 08:04:08;;;;;;;;;3.67;0.67;;;;;;;;5035794;28;45479;-81
2023/05/27 08:06:33;;;;;;;;;2.00;2.00;;;;;;;;5035344;28;45550;-82
2023/05/27 08:08:58;;;;;;;;;5.33;2.00;;;;;;;;5035424;28;45376;-81
2023/05/27 08:11:23;;;;;;;;;4.67;1.00;;;;;;;;5035780;28;45344;-81
2023/05/27 08:13:49;;;;;;;;;1.00;1.00;;;;;;;;5035355;28;45379;-81
2023/05/27 08:16:14;;;;;;;;;1.33;1.33;;;;;;;;5035556;28;45339;-82
2023/05/27 08:18:39;;;;;;;;;2.00;2.00;;;;;;;;5035355;28;45385;-81
2023/05/27 08:21:04;;;;;;;;;3.00;1.33;;;;;;;;5035219;28;45320;-81
2023/05/27 08:23:30;;;;;;;;;4.33;1.33;;;;;;;;5035501;28;45392;-81
2023/05/27 08:25:55;;;;;;;;;3.50;2.00;;;;;;;;5035212;28;46161;-81
2023/05/27 08:28:20;;;;;;;;;5.33;1.00;;;;;;;;5035353;28;45464;-80
2023/05/27 08:30:46;;;;;;;;;2.00;2.00;;;;;;;;5035295;28;45316;-81
2023/05/27 08:33:11;;;;;;;;;4.50;2.00;;;;;;;;5035494;28;45362;-81
2023/05/27 08:35:36;;;;;;;;;1.33;1.33;;;;;;;;5037330;28;45427;-81
2023/05/27 08:38:02;;;;;;;;;3.33;1.67;;;;;;;;5035596;28;45414;-81
2023/05/27 08:40:27;;;;;;;;;3.00;1.00;;;;;;;;5035860;28;45230;-81
2023/05/27 08:42:52;;;;;;;;;3.00;1.33;;;;;;;;5035606;28;45297;-81
2023/05/27 08:45:17;;;;;;;;;2.00;1.00;;;;;;;;5038287;28;46359;-81
2023/05/27 08:47:43;;;;;;;;;7.00;1.67;;;;;;;;5058253;28;45308;-81
2023/05/27 08:50:09;;;;;;;;;3.00;1.00;;;;;;;;5040413;28;45273;-81
2023/05/27 08:52:37;;;;;;;;;7.25;2.25;;;;;;;;5058878;28;45575;-81
2023/05/27 08:55:03;;;;;;;;;1.00;1.00;;;;;;;;5058789;28;45753;-81
2023/05/27 08:57:29;;;;;;;;;3.75;2.00;;;;;;;;5058757;28;45328;-81
2023/05/27 08:59:55;;;;;;;;;3.50;2.75;;;;;;;;5058732;28;45303;-81
2023/05/27 09:02:21;;;;;;;;;3.50;1.00;;;;;;;;5058922;28;45325;-81
2023/05/27 09:04:47;;;;;;;;;1.00;1.00;;;;;;;;5058165;28;46256;-81
2023/05/27 09:07:12;;;;;;;;;1.00;1.00;;;;;;;;5058648;28;45357;-81
2023/05/27 09:09:40;;;;;;;;;2.00;2.00;;;;;;;;5058513;28;45325;-81
2023/05/27 09:12:08;;;;;;;;;2.50;1.75;;;;;;;;5058185;28;45388;-81
2023/05/27 09:14:37;;;;;;;;;4.75;2.50;;;;;;;;5058241;28;45373;-81
2023/05/27 09:17:06;;;;;;;;;2.50;1.50;;;;;;;;5058524;28;45709;-83
2023/05/27 09:19:31;;;;;;;;;3.00;1.25;;;;;;;;5058239;28;45399;-82
2023/05/27 09:21:56;;;;;;;;;2.00;1.00;;;;;;;;5058380;28;45352;-82
2023/05/27 09:24:22;;;;;;;;;3.33;2.00;;;;;;;;5057825;28;45403;-82
2023/05/27 09:26:50;;;;;;;;;3.00;1.00;;;;;;;;5058009;28;45357;-82
2023/05/27 09:29:17;;;;;;;;;2.25;2.00;;;;;;;;5058119;28;45442;-82
2023/05/27 09:31:44;;;;;;;;;6.25;2.75;;;;;;;;5058070;28;45609;-82
2023/05/27 09:34:13;;;;;;;;;2.00;2.00;;;;;;;;5057628;28;46229;-82
2023/05/27 09:36:42;;;;;;;;;3.75;2.75;;;;;;;;5057913;28;45375;-82
2023/05/27 09:39:07;;;;;;;;;4.75;2.00;;;;;;;;5057921;28;45327;-82
2023/05/27 09:41:33;;;;;;;;;4.67;2.00;;;;;;;;5058097;28;45270;-82
2023/05/27 09:44:00;;;;;;;;;2.75;2.25;;;;;;;;5057471;28;46223;-82
2023/05/27 09:46:26;;;;;;;;;2.50;2.50;;;;;;;;5057600;28;45261;-82
2023/05/27 09:48:51;;;;;;;;;1.75;1.75;;;;;;;;5057416;28;45413;-80
2023/05/27 09:51:16;;;;;;;;;4.50;3.00;;;;;;;;5057855;28;45367;-81
2023/05/27 09:53:42;;;;;;;;;4.00;2.00;;;;;;;;5057652;28;46491;-80
2023/05/27 09:56:07;;;;;;;;;4.00;2.75;;;;;;;;5057592;28;45744;-81
2023/05/27 09:58:33;;;;;;;;;7.33;3.00;;;;;;;;5057766;28;45353;-81
2023/05/27 10:00:59;;;;;;;;;1.00;1.00;;;;;;;;5057674;28;45402;-80
2023/05/27 10:03:24;;;;;;;;;4.25;2.00;;;;;;;;5056969;28;45326;-81
2023/05/27 10:05:50;;;;;;;;;2.00;2.00;;;;;;;;5057377;28;45318;-81
2023/05/27 10:08:16;;;;;;;;;3.75;3.00;;;;;;;;5057808;28;45284;-81
2023/05/27 10:10:42;;;;;;;;;2.00;1.00;;;;;;;;5057474;28;45214;-81
2023/05/27 10:13:08;;;;;;;;;2.75;2.75;;;;;;;;5057052;28;45265;-81
2023/05/27 10:15:33;;;;;;;;;3.25;3.25;;;;;;;;5057266;28;45247;-81
2023/05/27 10:18:03;;;;;;;;;3.75;1.25;;;;;;;;5056946;28;45450;-82
2023/05/27 10:20:31;;;;;;;;;4.75;3.00;;;;;;;;5057357;28;45493;-82
2023/05/27 10:23:15;;;;;;;;;4.50;3.00;;;;;;;;5057378;28;45511;-82
2023/05/27 10:25:48;;;;;;;;;2.75;2.25;;;;;;;;5058808;28;45683;-82
2023/05/27 10:28:23;;;;;;;;;2.00;2.00;;;;;;;;5060259;28;45282;-82
2023/05/27 10:30:48;;;;;;;;;3.00;3.00;;;;;;;;5057243;28;45481;-82
2023/05/27 10:33:13;;;;;;;;;2.33;1.33;;;;;;;;5057255;28;47269;-82
2023/05/27 10:35:39;;;;;;;;;6.25;2.00;;;;;;;;5057331;28;45411;-82
2023/05/27 10:38:13;;;;;;;;;4.75;2.50;;;;;;;;5057394;28;45371;-81
2023/05/27 10:40:38;;;;;;;;;4.25;2.00;;;;;;;;5057536;28;45341;-82
2023/05/27 10:43:04;;;;;;;;;3.00;3.00;;;;;;;;5057068;28;46439;-82
2023/05/27 10:45:33;;;;;;;;;3.75;2.25;;;;;;;;5056520;28;45469;-82
2023/05/27 10:47:59;;;;;;;;;3.25;2.25;;;;;;;;5057256;28;45362;-82
2023/05/27 10:50:30;;;;;;;;;6.25;3.25;;;;;;;;5056931;28;45321;-81
2023/05/27 10:52:56;;;;;;;;;5.75;2.00;;;;;;;;5057011;28;46560;-82
2023/05/27 10:55:21;;;;;;;;;4.00;2.75;;;;;;;;5038873;28;45740;-81
2023/05/27 10:57:47;;;;;;;;;6.50;2.75;;;;;;;;5056877;28;45465;-82
2023/05/27 11:00:15;;;;;;;;;1.50;1.50;;;;;;;;5056782;28;45509;-82
2023/05/27 11:02:40;;;;;;;;;1.50;1.50;;;;;;;;5056561;28;46602;-82
2023/05/27 11:05:13;;;;;;;;;3.25;2.00;;;;;;;;5056589;28;45373;-82
2023/05/27 11:07:40;;;;;;;;;5.00;3.00;;;;;;;;5056926;28;45383;-82
2023/05/27 11:10:06;;;;;;;;;4.00;2.00;;;;;;;;5055919;28;45294;-82
2023/05/27 11:12:31;;;;;;;;;3.75;1.50;;;;;;;;5056382;28;46273;-82
2023/05/27 11:14:57;;;;;;;;;3.67;1.67;;;;;;;;5055931;28;45459;-82
2023/05/27 11:17:22;;;;;;;;;2.33;2.00;;;;;;;;5056581;28;45511;-83
2023/05/27 11:19:49;;;;;;;;;2.00;2.00;;;;;;;;5056469;28;45539;-81
2023/05/27 11:22:15;;;;;;;;;1.75;1.75;;;;;;;;5056478;28;46812;-81
2023/05/27 11:24:41;;;;;;;;;3.25;3.00;;;;;;;;5056467;28;45636;-81
2023/05/27 11:27:10;;;;;;;;;2.00;1.67;;;;;;;;5056491;28;45277;-81
2023/05/27 11:29:36;;;;;;;;;2.75;2.50;;;;;;;;5056012;28;45281;-81
2023/05/27 11:32:01;;;;;;;;;2.00;2.00;;;;;;;;5056380;28;45414;-81
2023/05/27 11:34:27;;;;;;;;;3.25;2.75;;;;;;;;5056307;28;45389;-81
2023/05/27 11:36:52;;;;;;;;;3.75;3.25;;;;;;;;5056526;28;45359;-81
2023/05/27 11:39:18;;;;;;;;;2.75;2.50;;;;;;;;5056189;28;45347;-82
2023/05/27 11:41:50;;;;;;;;;2.25;2.25;;;;;;;;5056046;28;45471;-81
2023/05/27 11:44:16;;;;;;;;;3.75;2.00;;;;;;;;5037844;28;46070;-82
2023/05/27 11:46:43;;;;;;;;;2.00;1.00;;;;;;;;5056200;28;45754;-82
2023/05/27 11:49:10;;;;;;;;;4.50;1.25;;;;;;;;5056019;28;45369;-81
2023/05/27 11:51:39;;;;;;;;;1.00;1.00;;;;;;;;5055911;28;45495;-81
2023/05/27 11:54:04;;;;;;;;;1.00;1.00;;;;;;;;5055878;28;45715;-82
2023/05/27 11:56:29;;;;;;;;;1.75;1.00;;;;;;;;5056071;28;45273;-82
2023/05/27 11:58:55;;;;;;;;;3.25;2.00;;;;;;;;5055519;28;45451;-81
2023/05/27 12:01:21;;;;;;;;;1.75;1.50;;;;;;;;5056040;28;46396;-82
2023/05/27 12:03:46;;;;;;;;;5.50;1.25;;;;;;;;5055857;28;45238;-82
2023/05/27 12:06:11;;;;;;;;;2.67;0.00;;;;;;;;5055936;28;45368;-82
2023/05/27 12:08:38;;;;;;;;;2.75;1.50;;;;;;;;5037948;28;45566;-82
2023/05/27 12:11:03;;;;;;;;;2.50;2.00;;;;;;;;5055637;28;45708;-82
2023/05/27 12:13:29;;;;;;;;;3.00;1.00;;;;;;;;5055217;28;45342;-82
2023/05/27 12:15:54;;;;;;;;;1.00;1.00;;;;;;;;5055845;28;45294;-82
2023/05/27 12:18:20;;;;;;;;;2.00;1.00;;;;;;;;5055854;28;45308;-82
2023/05/27 12:20:45;;;;;;;;;4.00;1.75;;;;;;;;5056203;28;46242;-82
2023/05/27 12:23:10;;;;;;;;;1.75;0.75;;;;;;;;5061085;28;45260;-83
2023/05/27 12:25:36;;;;;;;;;3.00;1.00;;;;;;;;5059737;28;45282;-82
2023/05/27 12:28:01;;;;;;;;;3.67;1.33;;;;;;;;5059095;28;45343;-82
2023/05/27 12:30:26;;;;;;;;;1.50;1.00;;;;;;;;5059173;28;46253;-82
2023/05/27 12:32:51;;;;;;;;;2.67;0.67;;;;;;;;5059384;28;45317;-82
2023/05/27 12:35:16;;;;;;;;;2.00;1.00;;;;;;;;5059432;28;45322;-82
2023/05/27 12:37:42;;;;;;;;;1.33;1.33;;;;;;;;5059403;28;45601;-82
2023/05/27 12:40:09;;;;;;;;;0.67;0.67;;;;;;;;5058892;28;46327;-82
2023/05/27 12:42:34;;;;;;;;;3.00;2.00;;;;;;;;5058803;28;45830;-82
2023/05/27 12:45:00;;;;;;;;;3.00;2.00;;;;;;;;5059286;28;45881;-82
2023/05/27 12:47:25;;;;;;;;;2.00;2.00;;;;;;;;5059063;28;45342;-83
2023/05/27 12:49:50;;;;;;;;;1.00;1.00;;;;;;;;5058874;28;45586;-83
2023/05/27 12:52:15;;;;;;;;;2.67;1.67;;;;;;;;5058881;28;45337;-82
2023/05/27 12:54:40;;;;;;;;;2.33;1.33;;;;;;;;5059198;28;45328;-83
2023/05/27 12:57:06;;;;;;;;;3.33;3.00;;;;;;;;5058480;28;45405;-82
2023/05/27 12:59:32;;;;;;;;;4.67;4.00;;;;;;;;5058878;28;46307;-83
2023/05/27 13:01:58;;;;;;;;;4.00;1.75;;;;;;;;5058390;28;45834;-82
2023/05/27 13:04:24;;;;;;;;;4.75;1.25;;;;;;;;5058689;28;45372;-83
2023/05/27 13:06:50;;;;;;;;;1.00;1.00;;;;;;;;5058734;28;45456;-83
2023/05/27 13:09:15;;;;;;;;;2.00;0.75;;;;;;;;5058310;28;45557;-83
2023/05/27 13:11:41;;;;;;;;;5.00;0.75;;;;;;;;5058191;28;45464;-83
2023/05/27 13:14:06;;;;;;;;;4.25;2.25;;;;;;;;5058358;28;45498;-83
2023/05/27 13:16:31;;;;;;;;;6.00;2.33;;;;;;;;5058548;28;45146;-83
2023/05/27 13:18:56;;;;;;;;;6.33;2.67;;;;;;;;5058325;28;45557;-83
2023/05/27 13:21:22;;;;;;;;;2.00;0.67;;;;;;;;5058232;28;45345;-82
2023/05/27 13:23:47;;;;;;;;;1.67;1.67;;;;;;;;5058467;28;45481;-83
2023/05/27 13:26:12;;;;;;;;;5.00;2.33;;;;;;;;5057972;28;45399;-82
2023/05/27 13:28:37;;;;;;;;;3.67;2.00;;;;;;;;5058233;28;45360;-83
2023/05/27 13:31:03;;;;;;;;;2.00;2.00;;;;;;;;5057960;28;45425;-83
2023/05/27 13:33:28;;;;;;;;;2.25;1.25;;;;;;;;5057542;28;45301;-82
2023/05/27 13:35:53;;;;;;;;;4.00;2.67;;;;;;;;5040048;28;45412;-82
2023/05/27 13:38:19;;;;;;;;;4.00;2.00;;;;;;;;5057819;28;45447;-82
2023/05/27 13:40:44;;;;;;;;;3.50;2.00;;;;;;;;5039390;28;45293;-82
2023/05/27 13:43:09;;;;;;;;;3.67;2.00;;;;;;;;5057896;28;45387;-82
2023/05/27 13:45:34;;;;;;;;;5.00;2.00;;;;;;;;5057777;28;45450;-82
2023/05/27 13:48:00;;;;;;;;;4.33;2.00;;;;;;;;5057580;28;46185;-82
2023/05/27 13:50:25;;;;;;;;;3.67;2.00;;;;;;;;5057622;28;45446;-82
2023/05/27 13:52:50;;;;;;;;;4.67;1.00;;;;;;;;5057599;28;45293;-81
2023/05/27 13:55:15;;;;;;;;;5.00;2.00;;;;;;;;5057268;28;45368;-82
2023/05/27 13:57:40;;;;;;;;;2.00;2.00;;;;;;;;5057689;28;46494;-82
2023/05/27 14:00:07;;;;;;;;;6.50;2.75;;;;;;;;5057412;28;45508;-82
2023/05/27 14:02:32;;;;;;;;;5.00;3.00;;;;;;;;5057628;28;45313;-82
2023/05/27 14:04:58;;;;;;;;;2.67;2.67;;;;;;;;5057584;28;45404;-81
2023/05/27 14:07:23;;;;;;;;;3.50;2.00;;;;;;;;5057538;28;45932;-83
2023/05/27 14:09:49;;;;;;;;;1.00;1.00;;;;;;;;5056979;28;45395;-82
2023/05/27 14:12:14;;;;;;;;;5.00;1.67;;;;;;;;5057477;28;45320;-82
2023/05/27 14:14:39;;;;;;;;;6.75;2.00;;;;;;;;5057421;28;45301;-82
2023/05/27 14:17:07;;;;;;;;;5.75;2.50;;;;;;;;5057219;28;46193;-82
2023/05/27 14:19:32;;;;;;;;;3.00;2.00;;;;;;;;5057351;28;45206;-81
2023/05/27 14:21:57;;;;;;;;;3.00;1.00;;;;;;;;5057189;28;45301;-81
2023/05/27 14:24:22;;;;;;;;;1.00;1.00;;;;;;;;5057183;28;45457;-81
2023/05/27 14:26:48;;;;;;;;;4.00;1.33;;;;;;;;5057331;28;45400;-81
2023/05/27 14:29:13;;;;;;;;;7.33;2.67;;;;;;;;5057333;28;45223;-81
2023/05/27 14:31:38;;;;;;;;;4.33;2.00;;;;;;;;5057298;28;45397;-81
2023/05/27 14:34:04;;;;;;;;;3.00;2.00;;;;;;;;5057333;28;45304;-81